createdAt,value
2023-07-10T00:00:08.185Z,30.96
2023-07-10T00:00:38.295Z,30.98
2023-07-10T00:01:08.432Z,30.99
2023-07-10T00:01:38.627Z,30.98
2023-07-10T00:02:08.527Z,30.99
2023-07-10T00:02:38.688Z,30.98
2023-07-10T00:03:08.786Z,30.99
2023-07-10T00:03:38.843Z,30.99
2023-07-10T00:04:08.832Z,31.02
2023-07-10T00:04:38.958Z,30.96
2023-07-10T00:05:09.094Z,30.99
2023-07-10T00:05:39.199Z,31.00
2023-07-10T00:06:09.199Z,31.00
2023-07-10T00:06:39.316Z,31.00
2023-07-10T00:07:09.440Z,30.99
2023-07-10T00:07:39.544Z,30.99
2023-07-10T00:08:09.596Z,31.02
2023-07-10T00:08:39.704Z,30.99
2023-07-10T00:09:09.817Z,30.99
2023-07-10T00:09:39.929Z,30.98
2023-07-10T00:10:10.051Z,31.00
2023-07-10T00:10:40.190Z,30.99
2023-07-10T00:11:10.171Z,30.96
2023-07-10T00:11:40.291Z,30.96
2023-07-10T00:12:10.395Z,30.99
2023-07-10T00:12:40.508Z,30.99
2023-07-10T00:13:10.620Z,31.00
2023-07-10T00:13:40.800Z,30.99
2023-07-10T00:14:10.853Z,31.02
2023-07-10T00:14:40.863Z,30.99
2023-07-10T00:15:10.978Z,31.00
2023-07-10T00:15:40.983Z,31.00
2023-07-10T00:16:11.141Z,30.99
2023-07-10T00:16:41.153Z,30.99
2023-07-10T00:17:11.143Z,31.00
2023-07-10T00:17:41.328Z,31.00
2023-07-10T00:18:11.321Z,31.02
2023-07-10T00:18:41.423Z,31.00
2023-07-10T00:19:11.547Z,31.00
2023-07-10T00:19:41.666Z,30.98
2023-07-10T00:20:11.784Z,30.96
2023-07-10T00:20:41.918Z,31.00
2023-07-10T00:21:12.028Z,30.99
2023-07-10T00:21:42.009Z,31.00
2023-07-10T00:22:12.127Z,31.02
2023-07-10T00:22:42.230Z,30.99
2023-07-10T00:23:12.356Z,30.98
2023-07-10T00:23:42.466Z,30.98
2023-07-10T00:24:12.466Z,30.99
2023-07-10T00:24:42.486Z,30.99
2023-07-10T00:25:12.564Z,30.98
2023-07-10T00:25:42.557Z,30.98
2023-07-10T00:26:12.663Z,30.98
2023-07-10T00:26:42.773Z,30.98
2023-07-10T00:27:12.897Z,30.98
2023-07-10T00:27:43.010Z,30.98
2023-07-10T00:28:13.118Z,30.98
2023-07-10T00:28:43.236Z,30.98
2023-07-10T00:29:13.366Z,30.95
2023-07-10T00:29:43.359Z,30.96
2023-07-10T00:30:13.468Z,30.95
2023-07-10T00:30:43.530Z,30.96
2023-07-10T00:31:13.625Z,30.96
2023-07-10T00:31:43.621Z,30.95
2023-07-10T00:32:13.729Z,30.96
2023-07-10T00:32:43.919Z,30.96
2023-07-10T00:33:13.915Z,30.95
2023-07-10T00:33:43.908Z,30.95
2023-07-10T00:34:14.028Z,30.96
2023-07-10T00:34:44.016Z,30.93
2023-07-10T00:35:14.133Z,30.92
2023-07-10T00:35:44.272Z,30.96
2023-07-10T00:36:14.260Z,30.92
2023-07-10T00:37:14.318Z,30.95
2023-07-10T00:37:44.427Z,30.89
2023-07-10T00:38:14.878Z,30.93
2023-07-10T00:38:44.612Z,30.92
2023-07-10T00:39:44.683Z,30.92
2023-07-10T00:40:14.838Z,30.92
2023-07-10T00:40:44.812Z,30.92
2023-07-10T00:41:14.883Z,30.92
2023-07-10T00:41:45.020Z,30.92
2023-07-10T00:42:14.997Z,30.90
2023-07-10T00:43:15.054Z,30.95
2023-07-10T00:43:45.127Z,30.93
2023-07-10T00:44:15.207Z,30.90
2023-07-10T00:44:45.274Z,30.92
2023-07-10T00:45:15.375Z,30.90
2023-07-10T00:45:45.444Z,30.90
2023-07-10T00:46:15.561Z,30.93
2023-07-10T00:46:45.594Z,30.90
2023-07-10T00:47:15.534Z,30.90
2023-07-10T00:47:45.649Z,30.93
2023-07-10T00:48:15.739Z,30.90
2023-07-10T00:48:45.838Z,30.90
2023-07-10T00:49:15.909Z,30.89
2023-07-10T00:49:45.981Z,30.92
2023-07-10T00:50:16.054Z,30.92
2023-07-10T00:50:46.155Z,30.92
2023-07-10T00:51:16.211Z,30.90
2023-07-10T00:51:46.288Z,30.92
2023-07-10T00:52:16.368Z,30.89
2023-07-10T00:52:46.455Z,30.89
2023-07-10T00:53:16.558Z,30.88
2023-07-10T00:53:46.593Z,30.92
2023-07-10T00:54:16.700Z,30.92
2023-07-10T00:54:46.816Z,30.90
2023-07-10T00:55:16.940Z,30.90
2023-07-10T00:55:47.045Z,30.90
2023-07-10T00:56:17.156Z,30.92
2023-07-10T00:56:47.286Z,30.89
2023-07-10T00:57:17.282Z,30.93
2023-07-10T00:58:28.946Z,30.92
2023-07-10T00:58:47.358Z,30.89
2023-07-10T00:59:17.471Z,30.88
2023-07-10T00:59:47.597Z,30.89
2023-07-10T01:00:17.701Z,30.90
2023-07-10T01:00:47.856Z,30.89
2023-07-10T01:01:18.006Z,30.89
2023-07-10T01:01:48.068Z,30.89
2023-07-10T01:02:17.988Z,30.90
2023-07-10T01:02:48.050Z,30.90
2023-07-10T01:03:18.052Z,30.89
2023-07-10T01:03:48.070Z,30.89
2023-07-10T01:04:18.185Z,30.90
2023-07-10T01:04:48.292Z,30.89
2023-07-10T01:05:18.403Z,30.90
2023-07-10T01:05:48.513Z,30.89
2023-07-10T01:06:18.667Z,30.90
2023-07-10T01:06:48.750Z,30.89
2023-07-10T01:07:18.866Z,30.89
2023-07-10T01:07:48.992Z,30.86
2023-07-10T01:08:18.992Z,30.88
2023-07-10T01:08:48.996Z,30.90
2023-07-10T01:09:19.106Z,30.90
2023-07-10T01:09:49.217Z,30.88
2023-07-10T01:10:19.333Z,30.86
2023-07-10T01:10:49.343Z,30.90
2023-07-10T01:11:19.337Z,30.86
2023-07-10T01:12:19.413Z,30.88
2023-07-10T01:12:49.412Z,30.89
2023-07-10T01:13:19.518Z,30.89
2023-07-10T01:13:49.673Z,30.88
2023-07-10T01:14:19.660Z,30.88
2023-07-10T01:14:49.776Z,30.90
2023-07-10T01:15:19.939Z,30.89
2023-07-10T01:15:49.922Z,30.90
2023-07-10T01:16:20.074Z,30.88
2023-07-10T01:16:50.181Z,30.89
2023-07-10T01:17:20.099Z,30.89
2023-07-10T01:17:50.283Z,30.89
2023-07-10T01:18:20.265Z,30.92
2023-07-10T01:18:50.263Z,30.88
2023-07-10T01:19:20.382Z,30.89
2023-07-10T01:19:50.489Z,30.90
2023-07-10T01:20:20.652Z,30.90
2023-07-10T01:20:50.629Z,30.89
2023-07-10T01:21:20.811Z,30.89
2023-07-10T01:21:50.791Z,30.89
2023-07-10T01:22:20.918Z,30.88
2023-07-10T01:22:50.904Z,30.88
2023-07-10T01:23:21.014Z,30.86
2023-07-10T01:23:51.123Z,30.90
2023-07-10T01:24:21.124Z,30.90
2023-07-10T01:24:51.240Z,30.90
2023-07-10T01:25:21.389Z,30.92
2023-07-10T01:25:51.379Z,30.89
2023-07-10T01:26:21.481Z,30.90
2023-07-10T01:26:51.598Z,30.89
2023-07-10T01:27:21.724Z,30.89
2023-07-10T01:27:51.828Z,30.88
2023-07-10T01:28:21.938Z,30.88
2023-07-10T01:28:52.047Z,30.88
2023-07-10T01:29:22.175Z,30.89
2023-07-10T01:29:52.353Z,30.88
2023-07-10T01:30:22.362Z,30.90
2023-07-10T01:30:52.528Z,30.88
2023-07-10T01:31:22.554Z,30.89
2023-07-10T01:31:52.548Z,30.88
2023-07-10T01:32:22.559Z,30.90
2023-07-10T01:32:52.612Z,30.89
2023-07-10T01:33:22.598Z,30.90
2023-07-10T01:33:52.745Z,30.89
2023-07-10T01:34:22.746Z,30.88
2023-07-10T01:34:52.852Z,30.89
2023-07-10T01:35:22.838Z,30.90
2023-07-10T01:35:52.982Z,30.88
2023-07-10T01:36:22.982Z,30.90
2023-07-10T01:36:53.077Z,30.88
2023-07-10T01:37:23.072Z,30.89
2023-07-10T01:37:53.215Z,30.88
2023-07-10T01:38:23.193Z,30.88
2023-07-10T01:38:54.119Z,30.89
2023-07-10T01:39:53.262Z,30.89
2023-07-10T01:40:23.377Z,30.89
2023-07-10T01:40:53.384Z,30.89
2023-07-10T01:41:23.491Z,30.90
2023-07-10T01:41:53.607Z,30.88
2023-07-10T01:42:23.744Z,30.88
2023-07-10T01:42:53.729Z,30.88
2023-07-10T01:43:23.815Z,30.88
2023-07-10T01:43:53.890Z,30.89
2023-07-10T01:44:23.965Z,30.88
2023-07-10T01:44:54.075Z,30.88
2023-07-10T01:45:24.143Z,30.88
2023-07-10T01:45:54.212Z,30.89
2023-07-10T01:46:24.284Z,30.88
2023-07-10T01:46:54.381Z,30.88
2023-07-10T01:47:24.511Z,30.86
2023-07-10T01:47:54.696Z,30.88
2023-07-10T01:48:24.760Z,30.86
2023-07-10T01:48:54.736Z,30.88
2023-07-10T01:49:24.689Z,30.88
2023-07-10T01:49:54.677Z,30.86
2023-07-10T01:50:24.759Z,30.88
2023-07-10T01:50:54.834Z,30.88
2023-07-10T01:51:24.905Z,30.89
2023-07-10T01:51:55.001Z,30.88
2023-07-10T01:52:25.063Z,30.89
2023-07-10T01:52:55.147Z,30.86
2023-07-10T01:53:25.255Z,30.89
2023-07-10T01:53:55.381Z,30.88
2023-07-10T01:54:25.375Z,30.89
2023-07-10T01:54:57.500Z,30.89
2023-07-10T01:55:25.507Z,30.85
2023-07-10T01:55:55.623Z,30.89
2023-07-10T01:56:25.735Z,30.90
2023-07-10T01:56:55.737Z,30.88
2023-07-10T01:57:25.883Z,30.88
2023-07-10T01:57:55.866Z,30.88
2023-07-10T01:58:25.979Z,30.90
2023-07-10T01:58:56.090Z,30.89
2023-07-10T01:59:26.207Z,30.89
2023-07-10T01:59:56.195Z,30.89
2023-07-10T02:00:26.316Z,30.89
2023-07-10T02:00:56.319Z,30.89
2023-07-10T02:01:26.362Z,30.92
2023-07-10T02:01:56.385Z,30.88
2023-07-10T02:02:26.510Z,30.89
2023-07-10T02:02:56.566Z,30.89
2023-07-10T02:03:26.567Z,30.89
2023-07-10T02:03:56.649Z,30.90
2023-07-10T02:04:26.662Z,30.90
2023-07-10T02:04:56.644Z,30.90
2023-07-10T02:05:26.764Z,30.93
2023-07-10T02:05:56.754Z,30.90
2023-07-10T02:06:26.887Z,30.92
2023-07-10T02:06:56.886Z,30.90
2023-07-10T02:07:26.893Z,30.92
2023-07-10T02:07:56.985Z,30.92
2023-07-10T02:08:27.111Z,30.92
2023-07-10T02:08:57.212Z,30.90
2023-07-10T02:09:27.219Z,30.93
2023-07-10T02:09:57.343Z,30.93
2023-07-10T02:10:39.451Z,30.93
2023-07-10T02:10:57.504Z,30.92
2023-07-10T02:11:27.621Z,30.93
2023-07-10T02:11:57.530Z,30.92
2023-07-10T02:12:27.650Z,30.93
2023-07-10T02:12:57.623Z,30.95
2023-07-10T02:13:27.718Z,30.93
2023-07-10T02:13:57.732Z,30.90
2023-07-10T02:14:27.738Z,30.95
2023-07-10T02:14:57.737Z,30.93
2023-07-10T02:15:27.852Z,30.93
2023-07-10T02:15:57.867Z,30.95
2023-07-10T02:16:27.969Z,30.95
2023-07-10T02:16:58.096Z,30.93
2023-07-10T02:17:28.293Z,30.95
2023-07-10T02:17:58.125Z,30.92
2023-07-10T02:18:28.226Z,30.95
2023-07-10T02:18:58.235Z,30.95
2023-07-10T02:19:28.332Z,30.98
2023-07-10T02:19:58.448Z,30.95
2023-07-10T02:20:28.581Z,30.96
2023-07-10T02:20:58.575Z,30.95
2023-07-10T02:21:28.661Z,30.95
2023-07-10T02:21:58.762Z,30.96
2023-07-10T02:22:28.886Z,30.93
2023-07-10T02:22:59.023Z,30.95
2023-07-10T02:23:29.125Z,30.98
2023-07-10T02:23:59.192Z,30.95
2023-07-10T02:24:29.304Z,30.95
2023-07-10T02:24:59.435Z,30.96
2023-07-10T02:25:29.434Z,30.96
2023-07-10T02:25:59.536Z,30.92
2023-07-10T02:26:29.670Z,30.95
2023-07-10T02:26:59.658Z,30.96
2023-07-10T02:27:29.772Z,30.93
2023-07-10T02:27:59.894Z,30.96
2023-07-10T02:28:29.898Z,30.95
2023-07-10T02:29:00.003Z,30.95
2023-07-10T02:29:30.117Z,30.93
2023-07-10T02:30:00.288Z,30.96
2023-07-10T02:30:30.254Z,30.93
2023-07-10T02:31:00.249Z,30.95
2023-07-10T02:31:30.391Z,30.92
2023-07-10T02:32:00.647Z,30.93
2023-07-10T02:32:30.455Z,30.93
2023-07-10T02:33:00.584Z,30.90
2023-07-10T02:33:30.594Z,30.93
2023-07-10T02:34:00.579Z,30.93
2023-07-10T02:34:30.702Z,30.90
2023-07-10T02:35:00.829Z,30.93
2023-07-10T02:36:00.759Z,30.89
2023-07-10T02:36:30.877Z,30.90
2023-07-10T02:37:00.994Z,30.92
2023-07-10T02:37:31.099Z,30.90
2023-07-10T02:38:01.225Z,30.92
2023-07-10T02:38:31.292Z,30.88
2023-07-10T02:39:01.279Z,30.89
2023-07-10T02:39:31.384Z,30.92
2023-07-10T02:40:01.413Z,30.89
2023-07-10T02:40:31.424Z,30.90
2023-07-10T02:41:01.538Z,30.92
2023-07-10T02:41:31.532Z,30.90
2023-07-10T02:42:01.652Z,30.89
2023-07-10T02:42:31.645Z,30.88
2023-07-10T02:43:01.748Z,30.89
2023-07-10T02:43:31.839Z,30.89
2023-07-10T02:44:01.934Z,30.88
2023-07-10T02:44:31.998Z,30.89
2023-07-10T02:45:02.071Z,30.88
2023-07-10T02:45:32.196Z,30.86
2023-07-10T02:46:02.559Z,30.86
2023-07-10T02:46:32.539Z,30.86
2023-07-10T02:47:02.457Z,30.86
2023-07-10T02:47:32.629Z,30.86
2023-07-10T02:48:02.602Z,30.88
2023-07-10T02:48:32.594Z,30.86
2023-07-10T02:49:02.667Z,30.85
2023-07-10T02:49:32.736Z,30.86
2023-07-10T02:50:02.819Z,30.86
2023-07-10T02:50:32.881Z,30.85
2023-07-10T02:51:02.972Z,30.85
2023-07-10T02:51:33.042Z,30.88
2023-07-10T02:52:03.114Z,30.86
2023-07-10T02:52:33.202Z,30.85
2023-07-10T02:53:03.319Z,30.83
2023-07-10T02:53:33.300Z,30.85
2023-07-10T02:54:03.323Z,30.85
2023-07-10T02:54:33.413Z,30.83
2023-07-10T02:55:03.525Z,30.85
2023-07-10T02:55:33.518Z,30.82
2023-07-10T02:56:03.955Z,30.86
2023-07-10T02:56:33.739Z,30.83
2023-07-10T02:57:03.853Z,30.82
2023-07-10T02:57:34.021Z,30.82
2023-07-10T02:58:04.080Z,30.85
2023-07-10T02:58:34.050Z,30.82
2023-07-10T02:59:04.042Z,30.83
2023-07-10T02:59:34.066Z,30.85
2023-07-10T03:00:04.040Z,30.83
2023-07-10T03:00:34.142Z,30.85
2023-07-10T03:01:04.208Z,30.83
2023-07-10T03:01:34.432Z,30.82
2023-07-10T03:02:04.236Z,30.82
2023-07-10T03:02:34.266Z,30.85
2023-07-10T03:03:04.315Z,30.81
2023-07-10T03:03:34.311Z,30.83
2023-07-10T03:04:04.437Z,30.85
2023-07-10T03:04:34.469Z,30.83
2023-07-10T03:05:04.488Z,30.85
2023-07-10T03:05:34.535Z,30.82
2023-07-10T03:06:04.942Z,30.83
2023-07-10T03:06:34.531Z,30.82
2023-07-10T03:07:04.711Z,30.83
2023-07-10T03:07:34.698Z,30.82
2023-07-10T03:08:04.808Z,30.82
2023-07-10T03:08:34.926Z,30.82
2023-07-10T03:09:05.076Z,30.81
2023-07-10T03:09:35.054Z,30.83
2023-07-10T03:10:05.179Z,30.83
2023-07-10T03:10:35.296Z,30.85
2023-07-10T03:11:05.405Z,30.83
2023-07-10T03:11:35.509Z,30.83
2023-07-10T03:12:05.634Z,30.81
2023-07-10T03:12:35.631Z,30.82
2023-07-10T03:13:05.752Z,30.82
2023-07-10T03:13:35.772Z,30.85
2023-07-10T03:14:05.914Z,30.82
2023-07-10T03:14:35.812Z,30.82
2023-07-10T03:15:05.925Z,30.83
2023-07-10T03:15:36.096Z,30.82
2023-07-10T03:16:06.428Z,30.83
2023-07-10T03:16:36.202Z,30.83
2023-07-10T03:17:06.217Z,30.83
2023-07-10T03:17:36.350Z,30.85
2023-07-10T03:18:06.368Z,30.82
2023-07-10T03:18:36.372Z,30.82
2023-07-10T03:19:06.344Z,30.82
2023-07-10T03:19:36.451Z,30.82
2023-07-10T03:20:06.592Z,30.83
2023-07-10T03:20:36.699Z,30.82
2023-07-10T03:21:06.695Z,30.82
2023-07-10T03:21:36.710Z,30.82
2023-07-10T03:22:36.774Z,30.83
2023-07-10T03:23:06.883Z,30.79
2023-07-10T03:23:36.881Z,30.83
2023-07-10T03:24:07.008Z,30.81
2023-07-10T03:24:37.133Z,30.83
2023-07-10T03:25:07.159Z,30.81
2023-07-10T03:25:37.143Z,30.82
2023-07-10T03:26:07.372Z,30.81
2023-07-10T03:26:37.218Z,30.82
2023-07-10T03:27:07.340Z,30.82
2023-07-10T03:27:37.325Z,30.82
2023-07-10T03:28:07.434Z,30.81
2023-07-10T03:28:37.574Z,30.81
2023-07-10T03:29:07.546Z,30.79
2023-07-10T03:29:37.673Z,30.77
2023-07-10T03:30:07.819Z,30.78
2023-07-10T03:30:37.788Z,30.77
2023-07-10T03:31:07.938Z,30.78
2023-07-10T03:31:38.054Z,30.81
2023-07-10T03:32:08.014Z,30.78
2023-07-10T03:32:38.147Z,30.79
2023-07-10T03:33:08.127Z,30.77
2023-07-10T03:33:38.237Z,30.79
2023-07-10T03:34:08.365Z,30.77
2023-07-10T03:34:38.763Z,30.77
2023-07-10T03:35:08.430Z,30.78
2023-07-10T03:35:38.410Z,30.78
2023-07-10T03:36:09.034Z,30.78
2023-07-10T03:36:38.580Z,30.79
2023-07-10T03:37:08.570Z,30.79
2023-07-10T03:38:08.666Z,30.78
2023-07-10T03:38:38.648Z,30.78
2023-07-10T03:39:08.765Z,30.78
2023-07-10T03:39:38.922Z,30.81
2023-07-10T03:40:08.963Z,30.81
2023-07-10T03:40:39.051Z,30.82
2023-07-10T03:41:09.167Z,30.81
2023-07-10T03:41:39.280Z,30.81
2023-07-10T03:42:09.398Z,30.82
2023-07-10T03:42:39.510Z,30.81
2023-07-10T03:43:09.616Z,30.82
2023-07-10T03:43:39.716Z,30.75
2023-07-10T03:44:09.790Z,30.77
2023-07-10T03:44:39.880Z,30.79
2023-07-10T03:45:09.951Z,30.79
2023-07-10T03:45:40.030Z,30.81
2023-07-10T03:46:10.114Z,30.82
2023-07-10T03:46:40.202Z,30.83
2023-07-10T03:47:10.418Z,30.83
2023-07-10T03:47:40.309Z,30.82
2023-07-10T03:48:10.338Z,30.81
2023-07-10T03:48:40.423Z,30.85
2023-07-10T03:49:10.531Z,30.86
2023-07-10T03:49:40.633Z,30.85
2023-07-10T03:50:10.704Z,30.86
2023-07-10T03:50:40.794Z,30.89
2023-07-10T03:51:10.844Z,30.88
2023-07-10T03:51:40.796Z,30.86
2023-07-10T03:52:10.882Z,30.86
2023-07-10T03:52:40.956Z,30.88
2023-07-10T03:53:11.109Z,30.90
2023-07-10T03:53:41.083Z,30.90
2023-07-10T03:54:11.214Z,30.92
2023-07-10T03:54:41.215Z,30.90
2023-07-10T03:55:11.320Z,30.89
2023-07-10T03:55:41.453Z,30.90
2023-07-10T03:56:11.563Z,30.92
2023-07-10T03:56:41.564Z,30.92
2023-07-10T03:57:11.670Z,30.90
2023-07-10T03:57:41.788Z,30.95
2023-07-10T03:58:11.915Z,30.95
2023-07-10T03:58:41.902Z,30.95
2023-07-10T03:59:12.024Z,30.95
2023-07-10T03:59:42.020Z,30.95
2023-07-10T04:00:12.019Z,30.95
2023-07-10T04:01:12.136Z,30.93
2023-07-10T04:01:42.132Z,30.92
2023-07-10T04:02:12.124Z,30.93
2023-07-10T04:02:42.305Z,30.95
2023-07-10T04:03:12.343Z,30.92
2023-07-10T04:03:42.375Z,30.95
2023-07-10T04:04:12.284Z,30.95
2023-07-10T04:04:42.402Z,30.92
2023-07-10T04:05:12.518Z,30.95
2023-07-10T04:05:42.632Z,30.96
2023-07-10T04:06:12.663Z,30.95
2023-07-10T04:06:42.703Z,30.98
2023-07-10T04:07:12.695Z,30.99
2023-07-10T04:07:42.686Z,30.99
2023-07-10T04:08:12.801Z,30.98
2023-07-10T04:08:42.910Z,30.96
2023-07-10T04:09:13.023Z,30.99
2023-07-10T04:09:43.149Z,30.99
2023-07-10T04:10:13.145Z,30.98
2023-07-10T04:10:43.243Z,30.99
2023-07-10T04:11:13.386Z,31.00
2023-07-10T04:11:43.393Z,31.02
2023-07-10T04:12:43.494Z,30.99
2023-07-10T04:13:13.474Z,31.03
2023-07-10T04:13:43.617Z,31.00
2023-07-10T04:14:13.657Z,31.03
2023-07-10T04:14:43.706Z,31.03
2023-07-10T04:15:13.812Z,31.00
2023-07-10T04:15:43.938Z,31.02
2023-07-10T04:16:13.950Z,31.05
2023-07-10T04:16:44.093Z,31.02
2023-07-10T04:17:14.059Z,31.05
2023-07-10T04:17:44.208Z,31.05
2023-07-10T04:18:14.219Z,31.05
2023-07-10T04:18:44.218Z,31.06
2023-07-10T04:19:44.309Z,31.03
2023-07-10T04:20:14.417Z,31.08
2023-07-10T04:20:44.400Z,31.08
2023-07-10T04:21:44.546Z,31.08
2023-07-10T04:22:14.536Z,31.06
2023-07-10T04:22:44.647Z,31.06
2023-07-10T04:23:14.759Z,31.06
2023-07-10T04:23:44.762Z,31.06
2023-07-10T04:24:14.881Z,31.06
2023-07-10T04:24:44.982Z,31.06
2023-07-10T04:25:15.111Z,31.08
2023-07-10T04:25:45.227Z,31.06
2023-07-10T04:26:15.246Z,31.06
2023-07-10T04:27:15.292Z,31.06
2023-07-10T04:27:45.408Z,31.06
2023-07-10T04:28:15.520Z,31.06
2023-07-10T04:28:45.636Z,31.08
2023-07-10T04:29:15.764Z,31.08
2023-07-10T04:29:45.750Z,31.10
2023-07-10T04:30:15.869Z,31.08
2023-07-10T04:30:46.094Z,31.08
2023-07-10T04:31:16.223Z,31.06
2023-07-10T04:31:46.133Z,31.05
2023-07-10T04:32:16.237Z,31.06
2023-07-10T04:32:46.315Z,31.08
2023-07-10T04:33:16.308Z,31.06
2023-07-10T04:33:46.427Z,31.08
2023-07-10T04:34:16.407Z,31.08
2023-07-10T04:34:46.455Z,31.06
2023-07-10T04:35:16.494Z,31.08
2023-07-10T04:35:46.488Z,31.08
2023-07-10T04:36:16.620Z,31.05
2023-07-10T04:36:46.596Z,31.05
2023-07-10T04:37:16.709Z,31.05
2023-07-10T04:37:46.821Z,31.05
2023-07-10T04:38:16.959Z,31.08
2023-07-10T04:38:46.944Z,31.06
2023-07-10T04:39:47.067Z,31.03
2023-07-10T04:40:17.057Z,31.02
2023-07-10T04:40:47.167Z,31.00
2023-07-10T04:41:17.302Z,31.02
2023-07-10T04:41:47.298Z,31.02
2023-07-10T04:42:17.417Z,31.00
2023-07-10T04:42:47.517Z,30.99
2023-07-10T04:43:17.608Z,30.96
2023-07-10T04:43:47.677Z,30.93
2023-07-10T04:44:17.749Z,30.90
2023-07-10T04:44:47.838Z,30.83
2023-07-10T04:45:17.959Z,30.77
2023-07-10T04:45:48.031Z,30.72
2023-07-10T04:46:18.112Z,30.68
2023-07-10T04:46:48.226Z,30.65
2023-07-10T04:47:18.410Z,30.55
2023-07-10T04:47:48.491Z,30.51
2023-07-10T04:48:18.568Z,30.47
2023-07-10T04:48:48.654Z,30.38
2023-07-10T04:49:18.663Z,30.33
2023-07-10T04:49:48.741Z,30.24
2023-07-10T04:50:18.809Z,30.19
2023-07-10T04:50:48.893Z,30.12
2023-07-10T04:51:18.973Z,30.07
2023-07-10T04:51:49.049Z,30.03
2023-07-10T04:52:19.121Z,29.97
2023-07-10T04:52:49.194Z,29.91
2023-07-10T04:53:19.301Z,29.86
2023-07-10T04:53:49.470Z,29.81
2023-07-10T04:54:19.489Z,29.77
2023-07-10T04:54:49.519Z,29.72
2023-07-10T04:55:23.581Z,29.69
2023-07-10T04:55:49.633Z,29.66
2023-07-10T04:56:49.860Z,29.59
2023-07-10T04:57:19.968Z,29.52
2023-07-10T04:57:50.089Z,29.46
2023-07-10T04:58:20.204Z,29.45
2023-07-10T04:58:50.332Z,29.40
2023-07-10T04:59:20.339Z,29.37
2023-07-10T04:59:50.446Z,29.34
2023-07-10T05:00:20.565Z,29.30
2023-07-10T05:00:51.403Z,29.25
2023-07-10T05:01:20.677Z,29.23
2023-07-10T05:02:20.810Z,29.17
2023-07-10T05:02:50.881Z,29.14
2023-07-10T05:03:20.917Z,29.11
2023-07-10T05:03:50.925Z,29.10
2023-07-10T05:04:20.937Z,29.06
2023-07-10T05:04:50.973Z,29.03
2023-07-10T05:05:20.897Z,29.04
2023-07-10T05:05:51.025Z,29.00
2023-07-10T05:06:21.131Z,29.00
2023-07-10T05:06:51.123Z,28.97
2023-07-10T05:07:21.245Z,28.97
2023-07-10T05:07:51.248Z,29.00
2023-07-10T05:08:51.351Z,29.00
2023-07-10T05:09:21.342Z,29.03
2023-07-10T05:10:21.411Z,29.07
2023-07-10T05:10:51.571Z,29.08
2023-07-10T05:11:21.577Z,29.10
2023-07-10T05:11:51.663Z,29.13
2023-07-10T05:12:21.874Z,29.15
2023-07-10T05:12:51.870Z,29.17
2023-07-10T05:13:52.028Z,29.21
2023-07-10T05:14:22.059Z,29.24
2023-07-10T05:14:52.077Z,29.25
2023-07-10T05:15:22.123Z,29.27
2023-07-10T05:15:52.143Z,29.27
2023-07-10T05:16:22.183Z,29.27
2023-07-10T05:16:52.150Z,29.25
2023-07-10T05:17:22.203Z,29.25
2023-07-10T05:17:52.240Z,29.25
2023-07-10T05:18:22.271Z,29.24
2023-07-10T05:18:52.403Z,29.25
2023-07-10T05:19:22.501Z,29.25
2023-07-10T05:19:52.615Z,29.24
2023-07-10T05:20:22.730Z,29.25
2023-07-10T05:20:52.844Z,29.24
2023-07-10T05:21:22.957Z,29.25
2023-07-10T05:21:53.083Z,29.27
2023-07-10T05:22:23.200Z,29.28
2023-07-10T05:22:53.309Z,29.28
2023-07-10T05:23:23.424Z,29.28
2023-07-10T05:23:53.533Z,29.30
2023-07-10T05:24:23.650Z,29.33
2023-07-10T05:24:53.759Z,29.34
2023-07-10T05:25:23.875Z,29.34
2023-07-10T05:25:53.989Z,29.34
2023-07-10T05:26:24.120Z,29.35
2023-07-10T05:26:54.136Z,29.35
2023-07-10T05:27:24.111Z,29.38
2023-07-10T05:27:54.265Z,29.35
2023-07-10T05:28:24.306Z,29.38
2023-07-10T05:28:54.285Z,29.37
2023-07-10T05:29:24.281Z,29.38
2023-07-10T05:29:54.391Z,29.38
2023-07-10T05:30:24.387Z,29.38
2023-07-10T05:30:54.521Z,29.38
2023-07-10T05:31:24.570Z,29.37
2023-07-10T05:31:54.612Z,29.40
2023-07-10T05:32:24.645Z,29.41
2023-07-10T05:32:54.719Z,29.37
2023-07-10T05:33:24.713Z,29.41
2023-07-10T05:33:54.825Z,29.41
2023-07-10T05:34:24.946Z,29.38
2023-07-10T05:34:55.000Z,29.33
2023-07-10T05:35:25.125Z,29.31
2023-07-10T05:35:55.236Z,29.30
2023-07-10T05:36:25.224Z,29.28
2023-07-10T05:36:55.338Z,29.28
2023-07-10T05:37:25.458Z,29.30
2023-07-10T05:37:55.577Z,29.28
2023-07-10T05:38:25.696Z,29.30
2023-07-10T05:38:55.808Z,29.31
2023-07-10T05:39:25.934Z,29.30
2023-07-10T05:39:55.925Z,29.30
2023-07-10T05:40:26.039Z,29.30
2023-07-10T05:40:56.419Z,29.35
2023-07-10T05:41:26.157Z,29.34
2023-07-10T05:42:26.387Z,29.37
2023-07-10T05:42:56.498Z,29.37
2023-07-10T05:43:26.609Z,29.38
2023-07-10T05:43:56.698Z,29.38
2023-07-10T05:44:26.768Z,29.41
2023-07-10T05:44:56.862Z,29.41
2023-07-10T05:45:26.942Z,29.41
2023-07-10T05:45:57.039Z,29.41
2023-07-10T05:46:27.181Z,29.41
2023-07-10T05:46:57.366Z,29.41
2023-07-10T05:47:27.264Z,29.44
2023-07-10T05:47:57.351Z,29.44
2023-07-10T05:48:27.459Z,29.45
2023-07-10T05:48:57.537Z,29.42
2023-07-10T05:49:27.632Z,29.42
2023-07-10T05:49:57.736Z,29.44
2023-07-10T05:50:27.820Z,29.45
2023-07-10T05:50:57.908Z,29.44
2023-07-10T05:51:28.003Z,29.44
2023-07-10T05:51:58.098Z,29.45
2023-07-10T05:52:28.171Z,29.42
2023-07-10T05:52:58.246Z,29.42
2023-07-10T05:53:28.444Z,29.41
2023-07-10T05:53:58.513Z,29.41
2023-07-10T05:54:28.518Z,29.41
2023-07-10T05:54:58.550Z,29.41
2023-07-10T05:55:28.608Z,29.42
2023-07-10T05:55:58.711Z,29.41
2023-07-10T05:56:31.176Z,29.41
2023-07-10T05:56:58.899Z,29.41
2023-07-10T05:57:28.871Z,29.44
2023-07-10T05:57:58.983Z,29.41
2023-07-10T05:58:29.129Z,29.44
2023-07-10T05:58:59.141Z,29.42
2023-07-10T05:59:29.142Z,29.45
2023-07-10T06:00:29.283Z,29.45
2023-07-10T06:00:59.262Z,29.46
2023-07-10T06:01:29.422Z,29.46
2023-07-10T06:01:59.471Z,29.48
2023-07-10T06:02:29.487Z,29.51
2023-07-10T06:02:59.507Z,29.49
2023-07-10T06:03:29.523Z,29.49
2023-07-10T06:03:59.633Z,29.52
2023-07-10T06:04:29.549Z,29.52
2023-07-10T06:04:59.685Z,29.54
2023-07-10T06:05:29.767Z,29.54
2023-07-10T06:05:59.895Z,29.55
2023-07-10T06:06:29.904Z,29.55
2023-07-10T06:06:59.898Z,29.54
2023-07-10T06:07:30.020Z,29.54
2023-07-10T06:08:00.150Z,29.52
2023-07-10T06:08:30.173Z,29.54
2023-07-10T06:09:00.158Z,29.55
2023-07-10T06:09:31.947Z,29.56
2023-07-10T06:10:00.289Z,29.49
2023-07-10T06:10:30.284Z,29.42
2023-07-10T06:11:00.272Z,29.45
2023-07-10T06:11:30.390Z,29.46
2023-07-10T06:12:00.528Z,29.46
2023-07-10T06:12:30.548Z,29.49
2023-07-10T06:13:00.540Z,29.48
2023-07-10T06:13:30.579Z,29.49
2023-07-10T06:14:00.556Z,29.51
2023-07-10T06:15:00.613Z,29.52
2023-07-10T06:15:30.733Z,29.56
2023-07-10T06:16:00.975Z,29.56
2023-07-10T06:16:30.898Z,29.56
2023-07-10T06:17:00.874Z,29.58
2023-07-10T06:17:30.908Z,29.59
2023-07-10T06:18:30.950Z,29.58
2023-07-10T06:19:01.066Z,29.59
2023-07-10T06:19:31.177Z,29.62
2023-07-10T06:20:01.319Z,29.61
2023-07-10T06:20:31.293Z,29.61
2023-07-10T06:21:01.449Z,29.58
2023-07-10T06:21:31.419Z,29.58
2023-07-10T06:22:01.555Z,29.58
2023-07-10T06:22:31.548Z,29.58
2023-07-10T06:23:01.670Z,29.58
2023-07-10T06:23:31.883Z,29.56
2023-07-10T06:24:01.942Z,29.55
2023-07-10T06:24:31.965Z,29.55
2023-07-10T06:25:02.076Z,29.56
2023-07-10T06:25:32.206Z,29.56
2023-07-10T06:26:02.390Z,29.56
2023-07-10T06:27:02.330Z,29.56
2023-07-10T06:27:32.413Z,29.52
2023-07-10T06:28:02.397Z,29.52
2023-07-10T06:29:02.506Z,29.52
2023-07-10T06:29:32.514Z,29.52
2023-07-10T06:30:32.601Z,29.49
2023-07-10T06:31:02.828Z,29.51
2023-07-10T06:31:32.708Z,29.48
2023-07-10T06:32:02.861Z,29.49
2023-07-10T06:32:32.898Z,29.48
2023-07-10T06:33:02.948Z,29.45
2023-07-10T06:33:32.987Z,29.44
2023-07-10T06:34:02.972Z,29.44
2023-07-10T06:34:33.107Z,29.44
2023-07-10T06:35:03.117Z,29.46
2023-07-10T06:35:33.113Z,29.45
2023-07-10T06:36:03.627Z,29.45
2023-07-10T06:36:33.370Z,29.45
2023-07-10T06:37:03.397Z,29.44
2023-07-10T06:37:33.412Z,29.45
2023-07-10T06:38:03.539Z,29.45
2023-07-10T06:38:33.644Z,29.44
2023-07-10T06:39:03.760Z,29.45
2023-07-10T06:39:33.871Z,29.44
2023-07-10T06:40:04.013Z,29.44
2023-07-10T06:40:34.025Z,29.44